sensor_id;sensor_type;location;lat;lon;timestamp;P1;durP1;ratioP1;P2;durP2;ratioP2
60030;SDS011;45901;47.600;9.890;2024-02-26T00:01:04;8.33;;;4.93;;
60030;SDS011;45901;47.600;9.890;2024-02-26T00:03:32;8.43;;;4.97;;
60030;SDS011;45901;47.600;9.890;2024-02-26T00:06:01;5.60;;;3.43;;
60030;SDS011;45901;47.600;9.890;2024-02-26T00:08:28;6.90;;;3.53;;
60030;SDS011;45901;47.600;9.890;2024-02-26T00:10:55;6.57;;;3.83;;
60030;SDS011;45901;47.600;9.890;2024-02-26T00:13:22;5.87;;;3.63;;
60030;SDS011;45901;47.600;9.890;2024-02-26T00:15:51;7.50;;;4.20;;
60030;SDS011;45901;47.600;9.890;2024-02-26T00:18:18;6.77;;;3.30;;
60030;SDS011;45901;47.600;9.890;2024-02-26T00:20:45;8.07;;;3.20;;
60030;SDS011;45901;47.600;9.890;2024-02-26T00:23:14;5.73;;;3.03;;
60030;SDS011;45901;47.600;9.890;2024-02-26T00:25:41;6.63;;;3.27;;
60030;SDS011;45901;47.600;9.890;2024-02-26T00:28:10;4.53;;;2.63;;
60030;SDS011;45901;47.600;9.890;2024-02-26T00:30:38;8.07;;;2.30;;
60030;SDS011;45901;47.600;9.890;2024-02-26T00:33:07;1.97;;;1.30;;
60030;SDS011;45901;47.600;9.890;2024-02-26T00:35:35;5.03;;;2.20;;
60030;SDS011;45901;47.600;9.890;2024-02-26T00:38:02;4.33;;;2.10;;
60030;SDS011;45901;47.600;9.890;2024-02-26T00:40:30;3.57;;;2.20;;
60030;SDS011;45901;47.600;9.890;2024-02-26T00:42:57;3.30;;;1.97;;
60030;SDS011;45901;47.600;9.890;2024-02-26T00:45:24;3.57;;;1.93;;
60030;SDS011;45901;47.600;9.890;2024-02-26T00:47:51;3.63;;;1.83;;
60030;SDS011;45901;47.600;9.890;2024-02-26T00:50:20;3.70;;;1.83;;
60030;SDS011;45901;47.600;9.890;2024-02-26T00:52:48;3.63;;;1.70;;
60030;SDS011;45901;47.600;9.890;2024-02-26T00:55:15;2.87;;;1.77;;
60030;SDS011;45901;47.600;9.890;2024-02-26T00:57:42;3.73;;;1.90;;
60030;SDS011;45901;47.600;9.890;2024-02-26T01:00:11;4.47;;;2.10;;
60030;SDS011;45901;47.600;9.890;2024-02-26T01:02:39;2.93;;;1.83;;
60030;SDS011;45901;47.600;9.890;2024-02-26T01:05:07;4.83;;;2.10;;
60030;SDS011;45901;47.600;9.890;2024-02-26T01:07:36;3.17;;;1.97;;
60030;SDS011;45901;47.600;9.890;2024-02-26T01:10:05;2.50;;;1.30;;
60030;SDS011;45901;47.600;9.890;2024-02-26T01:12:33;2.67;;;1.50;;
60030;SDS011;45901;47.600;9.890;2024-02-26T01:15:01;2.37;;;1.40;;
60030;SDS011;45901;47.600;9.890;2024-02-26T01:17:29;3.33;;;1.70;;
60030;SDS011;45901;47.600;9.890;2024-02-26T01:19:56;4.67;;;1.70;;
60030;SDS011;45901;47.600;9.890;2024-02-26T01:22:23;3.63;;;1.77;;
60030;SDS011;45901;47.600;9.890;2024-02-26T01:24:52;3.10;;;1.77;;
60030;SDS011;45901;47.600;9.890;2024-02-26T01:27:20;2.27;;;1.40;;
60030;SDS011;45901;47.600;9.890;2024-02-26T01:29:51;3.43;;;1.80;;
60030;SDS011;45901;47.600;9.890;2024-02-26T01:32:18;3.80;;;1.90;;
60030;SDS011;45901;47.600;9.890;2024-02-26T01:34:46;4.87;;;2.30;;
60030;SDS011;45901;47.600;9.890;2024-02-26T01:37:13;4.33;;;1.90;;
60030;SDS011;45901;47.600;9.890;2024-02-26T01:39:40;4.00;;;2.20;;
60030;SDS011;45901;47.600;9.890;2024-02-26T01:42:09;5.20;;;2.93;;
60030;SDS011;45901;47.600;9.890;2024-02-26T01:44:36;5.47;;;2.97;;
60030;SDS011;45901;47.600;9.890;2024-02-26T01:47:04;7.07;;;3.57;;
60030;SDS011;45901;47.600;9.890;2024-02-26T01:49:34;6.83;;;3.00;;
60030;SDS011;45901;47.600;9.890;2024-02-26T01:52:02;5.20;;;2.90;;
60030;SDS011;45901;47.600;9.890;2024-02-26T01:54:30;8.13;;;3.93;;
60030;SDS011;45901;47.600;9.890;2024-02-26T01:57:00;6.10;;;3.70;;
60030;SDS011;45901;47.600;9.890;2024-02-26T01:59:30;6.50;;;3.60;;
60030;SDS011;45901;47.600;9.890;2024-02-26T02:01:58;8.70;;;4.33;;
60030;SDS011;45901;47.600;9.890;2024-02-26T02:04:27;7.40;;;3.93;;
60030;SDS011;45901;47.600;9.890;2024-02-26T02:06:55;7.47;;;4.00;;
60030;SDS011;45901;47.600;9.890;2024-02-26T02:09:24;7.93;;;4.30;;
60030;SDS011;45901;47.600;9.890;2024-02-26T02:11:52;8.97;;;4.63;;
60030;SDS011;45901;47.600;9.890;2024-02-26T02:14:20;13.63;;;5.17;;
60030;SDS011;45901;47.600;9.890;2024-02-26T02:16:48;7.93;;;4.10;;
60030;SDS011;45901;47.600;9.890;2024-02-26T02:19:19;7.30;;;4.27;;
60030;SDS011;45901;47.600;9.890;2024-02-26T02:21:47;8.10;;;4.83;;
60030;SDS011;45901;47.600;9.890;2024-02-26T02:24:14;7.30;;;4.60;;
60030;SDS011;45901;47.600;9.890;2024-02-26T02:26:41;8.27;;;4.57;;
60030;SDS011;45901;47.600;9.890;2024-02-26T02:29:09;7.87;;;4.63;;
60030;SDS011;45901;47.600;9.890;2024-02-26T02:31:37;7.90;;;4.60;;
60030;SDS011;45901;47.600;9.890;2024-02-26T02:34:05;6.87;;;4.13;;
60030;SDS011;45901;47.600;9.890;2024-02-26T02:36:32;9.17;;;4.70;;
60030;SDS011;45901;47.600;9.890;2024-02-26T02:39:01;7.27;;;3.90;;
60030;SDS011;45901;47.600;9.890;2024-02-26T02:41:28;6.30;;;4.00;;
60030;SDS011;45901;47.600;9.890;2024-02-26T02:43:56;6.47;;;4.30;;
60030;SDS011;45901;47.600;9.890;2024-02-26T02:46:23;7.50;;;4.10;;
60030;SDS011;45901;47.600;9.890;2024-02-26T02:48:50;7.53;;;4.10;;
60030;SDS011;45901;47.600;9.890;2024-02-26T02:51:17;6.97;;;3.73;;
60030;SDS011;45901;47.600;9.890;2024-02-26T02:53:44;6.50;;;3.83;;
60030;SDS011;45901;47.600;9.890;2024-02-26T02:56:13;7.10;;;3.77;;
60030;SDS011;45901;47.600;9.890;2024-02-26T02:58:40;5.23;;;2.97;;
60030;SDS011;45901;47.600;9.890;2024-02-26T03:01:07;5.40;;;3.03;;
60030;SDS011;45901;47.600;9.890;2024-02-26T03:03:34;6.17;;;3.60;;
60030;SDS011;45901;47.600;9.890;2024-02-26T03:06:02;8.10;;;3.70;;
60030;SDS011;45901;47.600;9.890;2024-02-26T03:08:29;5.03;;;2.90;;
60030;SDS011;45901;47.600;9.890;2024-02-26T03:10:58;5.90;;;3.20;;
60030;SDS011;45901;47.600;9.890;2024-02-26T03:13:26;4.77;;;2.60;;
60030;SDS011;45901;47.600;9.890;2024-02-26T03:15:53;5.63;;;2.93;;
60030;SDS011;45901;47.600;9.890;2024-02-26T03:18:21;5.87;;;2.87;;
60030;SDS011;45901;47.600;9.890;2024-02-26T03:20:48;5.77;;;2.93;;
60030;SDS011;45901;47.600;9.890;2024-02-26T03:23:15;5.33;;;2.63;;
60030;SDS011;45901;47.600;9.890;2024-02-26T03:25:44;6.03;;;3.03;;
60030;SDS011;45901;47.600;9.890;2024-02-26T03:28:13;8.23;;;3.00;;
60030;SDS011;45901;47.600;9.890;2024-02-26T03:30:42;3.87;;;2.13;;
60030;SDS011;45901;47.600;9.890;2024-02-26T03:33:09;4.50;;;2.23;;
60030;SDS011;45901;47.600;9.890;2024-02-26T03:35:36;3.77;;;2.20;;
60030;SDS011;45901;47.600;9.890;2024-02-26T03:38:03;6.27;;;2.70;;
60030;SDS011;45901;47.600;9.890;2024-02-26T03:40:31;4.00;;;2.20;;
60030;SDS011;45901;47.600;9.890;2024-02-26T03:42:58;3.40;;;2.03;;
60030;SDS011;45901;47.600;9.890;2024-02-26T03:45:25;3.50;;;2.00;;
60030;SDS011;45901;47.600;9.890;2024-02-26T03:47:54;3.63;;;2.10;;
60030;SDS011;45901;47.600;9.890;2024-02-26T03:50:21;3.40;;;2.07;;
60030;SDS011;45901;47.600;9.890;2024-02-26T03:52:48;4.33;;;1.60;;
60030;SDS011;45901;47.600;9.890;2024-02-26T03:55:15;7.57;;;2.07;;
60030;SDS011;45901;47.600;9.890;2024-02-26T03:57:46;3.67;;;1.83;;
60030;SDS011;45901;47.600;9.890;2024-02-26T04:00:13;2.97;;;1.40;;
60030;SDS011;45901;47.600;9.890;2024-02-26T04:02:41;2.73;;;1.20;;
60030;SDS011;45901;47.600;9.890;2024-02-26T04:05:12;2.50;;;1.40;;
60030;SDS011;45901;47.600;9.890;2024-02-26T04:07:40;2.90;;;1.53;;
60030;SDS011;45901;47.600;9.890;2024-02-26T04:10:10;4.83;;;1.70;;
60030;SDS011;45901;47.600;9.890;2024-02-26T04:12:38;2.43;;;1.30;;
60030;SDS011;45901;47.600;9.890;2024-02-26T04:15:06;3.10;;;1.60;;
60030;SDS011;45901;47.600;9.890;2024-02-26T04:17:35;3.97;;;1.70;;
60030;SDS011;45901;47.600;9.890;2024-02-26T04:20:04;5.07;;;1.43;;
60030;SDS011;45901;47.600;9.890;2024-02-26T04:22:34;3.47;;;1.60;;
60030;SDS011;45901;47.600;9.890;2024-02-26T04:25:02;3.00;;;1.87;;
60030;SDS011;45901;47.600;9.890;2024-02-26T04:27:29;3.20;;;1.70;;
60030;SDS011;45901;47.600;9.890;2024-02-26T04:29:57;3.40;;;1.80;;
60030;SDS011;45901;47.600;9.890;2024-02-26T04:32:24;3.83;;;1.73;;
60030;SDS011;45901;47.600;9.890;2024-02-26T04:34:53;5.10;;;1.90;;
60030;SDS011;45901;47.600;9.890;2024-02-26T04:37:20;3.77;;;1.80;;
60030;SDS011;45901;47.600;9.890;2024-02-26T04:39:49;5.00;;;1.70;;
60030;SDS011;45901;47.600;9.890;2024-02-26T04:42:16;3.63;;;1.90;;
60030;SDS011;45901;47.600;9.890;2024-02-26T04:44:43;1.87;;;0.67;;
60030;SDS011;45901;47.600;9.890;2024-02-26T04:47:10;3.73;;;1.30;;
60030;SDS011;45901;47.600;9.890;2024-02-26T04:49:38;2.97;;;1.57;;
60030;SDS011;45901;47.600;9.890;2024-02-26T04:52:05;2.17;;;1.33;;
60030;SDS011;45901;47.600;9.890;2024-02-26T04:54:33;3.83;;;1.07;;
60030;SDS011;45901;47.600;9.890;2024-02-26T04:57:01;3.57;;;1.60;;
60030;SDS011;45901;47.600;9.890;2024-02-26T04:59:29;2.93;;;1.47;;
60030;SDS011;45901;47.600;9.890;2024-02-26T05:01:57;3.03;;;1.30;;
60030;SDS011;45901;47.600;9.890;2024-02-26T05:04:24;1.13;;;0.57;;
60030;SDS011;45901;47.600;9.890;2024-02-26T05:06:51;0.87;;;0.50;;
60030;SDS011;45901;47.600;9.890;2024-02-26T05:09:18;2.10;;;0.80;;
60030;SDS011;45901;47.600;9.890;2024-02-26T05:11:46;1.37;;;0.70;;
60030;SDS011;45901;47.600;9.890;2024-02-26T05:14:14;3.33;;;1.17;;
60030;SDS011;45901;47.600;9.890;2024-02-26T05:16:41;3.40;;;1.60;;
60030;SDS011;45901;47.600;9.890;2024-02-26T05:19:08;3.00;;;1.73;;
60030;SDS011;45901;47.600;9.890;2024-02-26T05:21:35;4.10;;;1.50;;
60030;SDS011;45901;47.600;9.890;2024-02-26T05:24:03;2.80;;;1.50;;
60030;SDS011;45901;47.600;9.890;2024-02-26T05:26:30;4.40;;;2.03;;
60030;SDS011;45901;47.600;9.890;2024-02-26T05:28:58;6.63;;;2.33;;
60030;SDS011;45901;47.600;9.890;2024-02-26T05:31:26;4.63;;;1.93;;
60030;SDS011;45901;47.600;9.890;2024-02-26T05:33:54;4.37;;;2.20;;
60030;SDS011;45901;47.600;9.890;2024-02-26T05:36:22;3.90;;;2.00;;
60030;SDS011;45901;47.600;9.890;2024-02-26T05:38:50;4.57;;;1.93;;
60030;SDS011;45901;47.600;9.890;2024-02-26T05:41:17;9.40;;;3.60;;
60030;SDS011;45901;47.600;9.890;2024-02-26T05:43:48;7.70;;;3.03;;
60030;SDS011;45901;47.600;9.890;2024-02-26T05:46:16;5.13;;;2.83;;
60030;SDS011;45901;47.600;9.890;2024-02-26T05:48:46;6.17;;;2.77;;
60030;SDS011;45901;47.600;9.890;2024-02-26T05:51:15;7.93;;;3.23;;
60030;SDS011;45901;47.600;9.890;2024-02-26T05:53:42;7.37;;;3.67;;
60030;SDS011;45901;47.600;9.890;2024-02-26T05:56:10;8.33;;;3.73;;
60030;SDS011;45901;47.600;9.890;2024-02-26T05:58:37;8.60;;;4.00;;
60030;SDS011;45901;47.600;9.890;2024-02-26T06:01:04;6.70;;;3.27;;
60030;SDS011;45901;47.600;9.890;2024-02-26T06:03:31;5.80;;;3.17;;
60030;SDS011;45901;47.600;9.890;2024-02-26T06:06:00;6.83;;;3.87;;
60030;SDS011;45901;47.600;9.890;2024-02-26T06:08:27;9.77;;;4.57;;
60030;SDS011;45901;47.600;9.890;2024-02-26T06:10:54;6.47;;;3.90;;
60030;SDS011;45901;47.600;9.890;2024-02-26T06:13:21;5.90;;;3.50;;
60030;SDS011;45901;47.600;9.890;2024-02-26T06:15:48;9.00;;;4.67;;
60030;SDS011;45901;47.600;9.890;2024-02-26T06:18:15;6.70;;;4.03;;
60030;SDS011;45901;47.600;9.890;2024-02-26T06:20:43;9.87;;;4.73;;
60030;SDS011;45901;47.600;9.890;2024-02-26T06:23:12;7.33;;;4.13;;
60030;SDS011;45901;47.600;9.890;2024-02-26T06:25:39;7.77;;;3.97;;
60030;SDS011;45901;47.600;9.890;2024-02-26T06:28:07;9.17;;;4.23;;
60030;SDS011;45901;47.600;9.890;2024-02-26T06:30:35;8.90;;;4.27;;
60030;SDS011;45901;47.600;9.890;2024-02-26T06:33:02;6.27;;;3.27;;
60030;SDS011;45901;47.600;9.890;2024-02-26T06:35:29;10.27;;;5.20;;
60030;SDS011;45901;47.600;9.890;2024-02-26T06:37:58;10.23;;;4.87;;
60030;SDS011;45901;47.600;9.890;2024-02-26T06:40:26;12.20;;;6.10;;
60030;SDS011;45901;47.600;9.890;2024-02-26T06:42:54;14.63;;;6.97;;
60030;SDS011;45901;47.600;9.890;2024-02-26T06:45:21;11.50;;;6.50;;
60030;SDS011;45901;47.600;9.890;2024-02-26T06:47:48;12.23;;;5.73;;
60030;SDS011;45901;47.600;9.890;2024-02-26T06:50:15;12.17;;;5.93;;
60030;SDS011;45901;47.600;9.890;2024-02-26T06:52:44;13.97;;;5.73;;
60030;SDS011;45901;47.600;9.890;2024-02-26T06:55:12;12.77;;;5.87;;
60030;SDS011;45901;47.600;9.890;2024-02-26T06:57:40;15.43;;;6.17;;
60030;SDS011;45901;47.600;9.890;2024-02-26T07:00:08;14.57;;;7.30;;
60030;SDS011;45901;47.600;9.890;2024-02-26T07:02:39;13.30;;;6.10;;
60030;SDS011;45901;47.600;9.890;2024-02-26T07:05:07;15.90;;;6.97;;
60030;SDS011;45901;47.600;9.890;2024-02-26T07:07:34;21.77;;;7.17;;
60030;SDS011;45901;47.600;9.890;2024-02-26T07:10:02;16.70;;;8.00;;
60030;SDS011;45901;47.600;9.890;2024-02-26T07:12:31;17.53;;;8.57;;
60030;SDS011;45901;47.600;9.890;2024-02-26T07:14:59;28.27;;;11.40;;
60030;SDS011;45901;47.600;9.890;2024-02-26T07:17:27;22.27;;;11.47;;
60030;SDS011;45901;47.600;9.890;2024-02-26T07:19:55;32.40;;;12.60;;
60030;SDS011;45901;47.600;9.890;2024-02-26T07:22:22;26.43;;;13.07;;
60030;SDS011;45901;47.600;9.890;2024-02-26T07:24:50;30.33;;;12.70;;
60030;SDS011;45901;47.600;9.890;2024-02-26T07:27:17;45.00;;;19.80;;
60030;SDS011;45901;47.600;9.890;2024-02-26T07:29:49;38.10;;;15.37;;
60030;SDS011;45901;47.600;9.890;2024-02-26T07:32:17;20.37;;;6.83;;
60030;SDS011;45901;47.600;9.890;2024-02-26T07:34:44;10.73;;;5.40;;
60030;SDS011;45901;47.600;9.890;2024-02-26T07:37:12;7.37;;;4.17;;
60030;SDS011;45901;47.600;9.890;2024-02-26T07:39:39;13.73;;;5.93;;
60030;SDS011;45901;47.600;9.890;2024-02-26T07:42:06;12.03;;;5.93;;
60030;SDS011;45901;47.600;9.890;2024-02-26T07:44:33;13.50;;;6.00;;
60030;SDS011;45901;47.600;9.890;2024-02-26T07:47:01;13.70;;;6.47;;
60030;SDS011;45901;47.600;9.890;2024-02-26T07:49:30;15.27;;;7.70;;
60030;SDS011;45901;47.600;9.890;2024-02-26T07:51:57;14.00;;;6.50;;
60030;SDS011;45901;47.600;9.890;2024-02-26T07:54:24;8.40;;;4.20;;
60030;SDS011;45901;47.600;9.890;2024-02-26T07:56:51;3.77;;;1.87;;
60030;SDS011;45901;47.600;9.890;2024-02-26T07:59:18;3.70;;;1.20;;
60030;SDS011;45901;47.600;9.890;2024-02-26T08:01:49;4.57;;;0.80;;
60030;SDS011;45901;47.600;9.890;2024-02-26T08:04:17;1.23;;;0.73;;
60030;SDS011;45901;47.600;9.890;2024-02-26T08:06:45;2.57;;;1.30;;
60030;SDS011;45901;47.600;9.890;2024-02-26T08:09:12;2.37;;;1.30;;
60030;SDS011;45901;47.600;9.890;2024-02-26T08:11:39;1.93;;;0.80;;
60030;SDS011;45901;47.600;9.890;2024-02-26T08:14:07;1.90;;;0.93;;
60030;SDS011;45901;47.600;9.890;2024-02-26T08:16:34;1.27;;;0.60;;
60030;SDS011;45901;47.600;9.890;2024-02-26T08:19:01;1.63;;;0.83;;
60030;SDS011;45901;47.600;9.890;2024-02-26T08:21:28;2.70;;;0.90;;
60030;SDS011;45901;47.600;9.890;2024-02-26T08:23:56;1.43;;;0.60;;
60030;SDS011;45901;47.600;9.890;2024-02-26T08:26:24;2.80;;;1.00;;
60030;SDS011;45901;47.600;9.890;2024-02-26T08:28:51;2.37;;;0.87;;
60030;SDS011;45901;47.600;9.890;2024-02-26T08:31:19;4.93;;;0.83;;
60030;SDS011;45901;47.600;9.890;2024-02-26T08:33:48;3.33;;;1.00;;
60030;SDS011;45901;47.600;9.890;2024-02-26T08:36:15;4.87;;;1.30;;
60030;SDS011;45901;47.600;9.890;2024-02-26T08:38:42;3.60;;;0.80;;
60030;SDS011;45901;47.600;9.890;2024-02-26T08:41:11;5.20;;;1.17;;
60030;SDS011;45901;47.600;9.890;2024-02-26T08:43:38;3.40;;;1.13;;
60030;SDS011;45901;47.600;9.890;2024-02-26T08:46:08;3.30;;;1.20;;
60030;SDS011;45901;47.600;9.890;2024-02-26T08:48:36;1.67;;;0.90;;
60030;SDS011;45901;47.600;9.890;2024-02-26T08:51:04;2.00;;;0.80;;
60030;SDS011;45901;47.600;9.890;2024-02-26T08:53:33;0.97;;;0.60;;
60030;SDS011;45901;47.600;9.890;2024-02-26T08:56:00;1.83;;;0.60;;
60030;SDS011;45901;47.600;9.890;2024-02-26T08:58:29;1.57;;;0.77;;
60030;SDS011;45901;47.600;9.890;2024-02-26T09:00:56;1.47;;;0.60;;
60030;SDS011;45901;47.600;9.890;2024-02-26T09:03:23;1.23;;;0.60;;
60030;SDS011;45901;47.600;9.890;2024-02-26T09:05:51;1.67;;;0.87;;
60030;SDS011;45901;47.600;9.890;2024-02-26T09:08:18;3.20;;;0.87;;
60030;SDS011;45901;47.600;9.890;2024-02-26T09:10:47;2.13;;;0.93;;
60030;SDS011;45901;47.600;9.890;2024-02-26T09:13:14;2.13;;;1.00;;
60030;SDS011;45901;47.600;9.890;2024-02-26T09:15:42;3.50;;;0.80;;
60030;SDS011;45901;47.600;9.890;2024-02-26T09:18:10;2.83;;;1.10;;
60030;SDS011;45901;47.600;9.890;2024-02-26T09:20:37;1.90;;;1.03;;
60030;SDS011;45901;47.600;9.890;2024-02-26T09:23:04;2.73;;;1.10;;
60030;SDS011;45901;47.600;9.890;2024-02-26T09:25:31;2.63;;;1.07;;
60030;SDS011;45901;47.600;9.890;2024-02-26T09:27:59;2.10;;;1.03;;
60030;SDS011;45901;47.600;9.890;2024-02-26T09:30:27;3.13;;;1.10;;
60030;SDS011;45901;47.600;9.890;2024-02-26T09:32:55;3.87;;;0.93;;
60030;SDS011;45901;47.600;9.890;2024-02-26T09:35:22;3.10;;;1.23;;
60030;SDS011;45901;47.600;9.890;2024-02-26T09:37:51;3.27;;;1.97;;
60030;SDS011;45901;47.600;9.890;2024-02-26T09:40:19;5.07;;;1.10;;
60030;SDS011;45901;47.600;9.890;2024-02-26T09:42:47;2.03;;;0.90;;
60030;SDS011;45901;47.600;9.890;2024-02-26T09:45:18;1.30;;;0.70;;
60030;SDS011;45901;47.600;9.890;2024-02-26T09:47:48;2.30;;;0.50;;
60030;SDS011;45901;47.600;9.890;2024-02-26T09:50:17;0.70;;;0.40;;
60030;SDS011;45901;47.600;9.890;2024-02-26T09:52:48;1.13;;;0.50;;
60030;SDS011;45901;47.600;9.890;2024-02-26T09:55:17;0.70;;;0.50;;
60030;SDS011;45901;47.600;9.890;2024-02-26T09:57:45;0.63;;;0.33;;
60030;SDS011;45901;47.600;9.890;2024-02-26T10:00:14;0.83;;;0.20;;
60030;SDS011;45901;47.600;9.890;2024-02-26T10:02:45;0.20;;;0.20;;
60030;SDS011;45901;47.600;9.890;2024-02-26T10:05:14;0.10;;;0.10;;
60030;SDS011;45901;47.600;9.890;2024-02-26T10:07:45;0.50;;;0.20;;
60030;SDS011;45901;47.600;9.890;2024-02-26T10:10:12;0.13;;;0.13;;
60030;SDS011;45901;47.600;9.890;2024-02-26T10:12:40;0.20;;;0.10;;
60030;SDS011;45901;47.600;9.890;2024-02-26T10:15:07;0.30;;;0.20;;
60030;SDS011;45901;47.600;9.890;2024-02-26T10:17:35;1.43;;;0.10;;
60030;SDS011;45901;47.600;9.890;2024-02-26T10:20:12;0.27;;;0.20;;
60030;SDS011;45901;47.600;9.890;2024-02-26T10:22:44;0.23;;;0.20;;
60030;SDS011;45901;47.600;9.890;2024-02-26T10:25:11;2.00;;;0.90;;
60030;SDS011;45901;47.600;9.890;2024-02-26T10:27:39;1.03;;;0.37;;
60030;SDS011;45901;47.600;9.890;2024-02-26T10:30:15;1.00;;;0.57;;
60030;SDS011;45901;47.600;9.890;2024-02-26T10:32:44;0.60;;;0.50;;
60030;SDS011;45901;47.600;9.890;2024-02-26T10:35:12;1.97;;;0.60;;
60030;SDS011;45901;47.600;9.890;2024-02-26T10:37:40;1.90;;;0.60;;
60030;SDS011;45901;47.600;9.890;2024-02-26T10:40:11;0.70;;;0.33;;
60030;SDS011;45901;47.600;9.890;2024-02-26T10:42:39;0.97;;;0.43;;
60030;SDS011;45901;47.600;9.890;2024-02-26T10:45:07;0.90;;;0.50;;
60030;SDS011;45901;47.600;9.890;2024-02-26T10:47:36;0.63;;;0.27;;
60030;SDS011;45901;47.600;9.890;2024-02-26T10:50:04;0.63;;;0.43;;
60030;SDS011;45901;47.600;9.890;2024-02-26T10:52:33;0.30;;;0.20;;
60030;SDS011;45901;47.600;9.890;2024-02-26T10:55:03;0.40;;;0.30;;
60030;SDS011;45901;47.600;9.890;2024-02-26T10:57:34;0.83;;;0.30;;
60030;SDS011;45901;47.600;9.890;2024-02-26T11:00:06;1.00;;;0.10;;
60030;SDS011;45901;47.600;9.890;2024-02-26T11:02:37;0.50;;;0.30;;
60030;SDS011;45901;47.600;9.890;2024-02-26T11:05:07;1.57;;;0.90;;
60030;SDS011;45901;47.600;9.890;2024-02-26T11:07:34;0.60;;;0.47;;
60030;SDS011;45901;47.600;9.890;2024-02-26T11:10:02;1.90;;;0.80;;
60030;SDS011;45901;47.600;9.890;2024-02-26T11:12:32;1.50;;;0.70;;
60030;SDS011;45901;47.600;9.890;2024-02-26T11:15:02;0.73;;;0.40;;
60030;SDS011;45901;47.600;9.890;2024-02-26T11:17:31;0.60;;;0.50;;
60030;SDS011;45901;47.600;9.890;2024-02-26T11:19:59;2.40;;;1.37;;
60030;SDS011;45901;47.600;9.890;2024-02-26T11:22:27;2.07;;;1.30;;
60030;SDS011;45901;47.600;9.890;2024-02-26T11:24:55;1.33;;;0.80;;
60030;SDS011;45901;47.600;9.890;2024-02-26T11:27:26;1.00;;;0.53;;
60030;SDS011;45901;47.600;9.890;2024-02-26T11:29:59;0.80;;;0.40;;
60030;SDS011;45901;47.600;9.890;2024-02-26T11:32:30;1.40;;;0.43;;
60030;SDS011;45901;47.600;9.890;2024-02-26T11:35:00;0.67;;;0.43;;
60030;SDS011;45901;47.600;9.890;2024-02-26T11:37:28;0.67;;;0.40;;
60030;SDS011;45901;47.600;9.890;2024-02-26T11:39:55;1.77;;;0.47;;
60030;SDS011;45901;47.600;9.890;2024-02-26T11:42:26;0.80;;;0.53;;
60030;SDS011;45901;47.600;9.890;2024-02-26T11:44:55;2.87;;;0.70;;
60030;SDS011;45901;47.600;9.890;2024-02-26T11:47:26;0.60;;;0.50;;
60030;SDS011;45901;47.600;9.890;2024-02-26T11:49:53;2.00;;;0.80;;
60030;SDS011;45901;47.600;9.890;2024-02-26T11:52:21;0.93;;;0.43;;
60030;SDS011;45901;47.600;9.890;2024-02-26T11:54:49;1.63;;;0.60;;
60030;SDS011;45901;47.600;9.890;2024-02-26T11:57:21;1.00;;;0.43;;
60030;SDS011;45901;47.600;9.890;2024-02-26T11:59:49;0.70;;;0.43;;
60030;SDS011;45901;47.600;9.890;2024-02-26T12:05:11;1.43;;;0.70;;
60030;SDS011;45901;47.600;9.890;2024-02-26T12:07:42;1.63;;;0.77;;
60030;SDS011;45901;47.600;9.890;2024-02-26T12:10:16;1.27;;;0.93;;
60030;SDS011;45901;47.600;9.890;2024-02-26T12:12:53;3.50;;;1.17;;
60030;SDS011;45901;47.600;9.890;2024-02-26T12:15:30;1.20;;;0.60;;
60030;SDS011;45901;47.600;9.890;2024-02-26T12:18:04;2.47;;;0.60;;
60030;SDS011;45901;47.600;9.890;2024-02-26T12:20:34;1.07;;;0.60;;
60030;SDS011;45901;47.600;9.890;2024-02-26T12:23:02;0.70;;;0.40;;
60030;SDS011;45901;47.600;9.890;2024-02-26T12:25:30;1.37;;;0.40;;
60030;SDS011;45901;47.600;9.890;2024-02-26T12:27:58;3.00;;;0.50;;
60030;SDS011;45901;47.600;9.890;2024-02-26T12:30:26;0.83;;;0.40;;
60030;SDS011;45901;47.600;9.890;2024-02-26T12:32:55;0.87;;;0.40;;
60030;SDS011;45901;47.600;9.890;2024-02-26T12:35:25;0.57;;;0.33;;
60030;SDS011;45901;47.600;9.890;2024-02-26T12:37:52;1.43;;;0.53;;
60030;SDS011;45901;47.600;9.890;2024-02-26T12:40:20;1.50;;;0.50;;
60030;SDS011;45901;47.600;9.890;2024-02-26T12:42:48;1.23;;;0.60;;
60030;SDS011;45901;47.600;9.890;2024-02-26T12:45:15;2.20;;;0.60;;
60030;SDS011;45901;47.600;9.890;2024-02-26T12:47:42;1.17;;;0.50;;
60030;SDS011;45901;47.600;9.890;2024-02-26T12:50:12;1.20;;;0.60;;
60030;SDS011;45901;47.600;9.890;2024-02-26T12:52:41;2.43;;;1.17;;
60030;SDS011;45901;47.600;9.890;2024-02-26T12:55:12;3.93;;;1.63;;
60030;SDS011;45901;47.600;9.890;2024-02-26T12:57:44;3.97;;;1.57;;
60030;SDS011;45901;47.600;9.890;2024-02-26T13:00:15;3.57;;;1.60;;
60030;SDS011;45901;47.600;9.890;2024-02-26T13:02:47;5.87;;;2.60;;
60030;SDS011;45901;47.600;9.890;2024-02-26T13:05:16;4.00;;;1.40;;
60030;SDS011;45901;47.600;9.890;2024-02-26T13:07:46;2.07;;;0.90;;
60030;SDS011;45901;47.600;9.890;2024-02-26T13:10:14;1.17;;;0.40;;
60030;SDS011;45901;47.600;9.890;2024-02-26T13:12:43;3.50;;;0.70;;
60030;SDS011;45901;47.600;9.890;2024-02-26T13:15:13;2.03;;;0.90;;
60030;SDS011;45901;47.600;9.890;2024-02-26T13:17:42;3.70;;;1.00;;
60030;SDS011;45901;47.600;9.890;2024-02-26T13:20:10;1.87;;;0.80;;
60030;SDS011;45901;47.600;9.890;2024-02-26T13:22:38;2.30;;;0.90;;
60030;SDS011;45901;47.600;9.890;2024-02-26T13:25:07;1.53;;;0.80;;
60030;SDS011;45901;47.600;9.890;2024-02-26T13:27:34;1.83;;;0.90;;
60030;SDS011;45901;47.600;9.890;2024-02-26T13:30:03;2.17;;;0.80;;
60030;SDS011;45901;47.600;9.890;2024-02-26T13:32:33;1.77;;;0.90;;
60030;SDS011;45901;47.600;9.890;2024-02-26T13:35:07;1.03;;;0.60;;
60030;SDS011;45901;47.600;9.890;2024-02-26T13:37:36;1.03;;;0.60;;
60030;SDS011;45901;47.600;9.890;2024-02-26T13:40:05;1.47;;;0.57;;
60030;SDS011;45901;47.600;9.890;2024-02-26T13:42:35;1.13;;;0.53;;
60030;SDS011;45901;47.600;9.890;2024-02-26T13:45:03;0.57;;;0.40;;
60030;SDS011;45901;47.600;9.890;2024-02-26T13:47:32;0.73;;;0.30;;
60030;SDS011;45901;47.600;9.890;2024-02-26T13:49:59;1.10;;;0.60;;
60030;SDS011;45901;47.600;9.890;2024-02-26T13:52:27;1.10;;;0.80;;
60030;SDS011;45901;47.600;9.890;2024-02-26T13:54:57;0.93;;;0.60;;
60030;SDS011;45901;47.600;9.890;2024-02-26T13:57:26;0.90;;;0.40;;
60030;SDS011;45901;47.600;9.890;2024-02-26T13:59:53;0.93;;;0.47;;
60030;SDS011;45901;47.600;9.890;2024-02-26T14:02:21;1.00;;;0.40;;
60030;SDS011;45901;47.600;9.890;2024-02-26T14:04:48;1.07;;;0.50;;
60030;SDS011;45901;47.600;9.890;2024-02-26T14:07:15;2.63;;;0.50;;
60030;SDS011;45901;47.600;9.890;2024-02-26T14:09:42;0.90;;;0.30;;
60030;SDS011;45901;47.600;9.890;2024-02-26T14:12:10;1.37;;;0.47;;
60030;SDS011;45901;47.600;9.890;2024-02-26T14:14:39;1.83;;;0.83;;
60030;SDS011;45901;47.600;9.890;2024-02-26T14:17:07;1.60;;;0.87;;
60030;SDS011;45901;47.600;9.890;2024-02-26T14:19:35;1.27;;;0.63;;
60030;SDS011;45901;47.600;9.890;2024-02-26T14:22:04;0.80;;;0.53;;
60030;SDS011;45901;47.600;9.890;2024-02-26T14:24:31;3.53;;;0.97;;
60030;SDS011;45901;47.600;9.890;2024-02-26T14:26:59;2.20;;;0.90;;
60030;SDS011;45901;47.600;9.890;2024-02-26T14:29:26;6.53;;;1.33;;
60030;SDS011;45901;47.600;9.890;2024-02-26T14:31:54;3.13;;;1.30;;
60030;SDS011;45901;47.600;9.890;2024-02-26T14:34:21;2.23;;;1.07;;
60030;SDS011;45901;47.600;9.890;2024-02-26T14:36:48;1.17;;;0.40;;
60030;SDS011;45901;47.600;9.890;2024-02-26T14:39:16;1.10;;;0.60;;
60030;SDS011;45901;47.600;9.890;2024-02-26T14:41:43;0.87;;;0.37;;
60030;SDS011;45901;47.600;9.890;2024-02-26T14:44:10;0.93;;;0.50;;
60030;SDS011;45901;47.600;9.890;2024-02-26T14:46:37;0.50;;;0.40;;
60030;SDS011;45901;47.600;9.890;2024-02-26T14:49:06;1.47;;;0.80;;
60030;SDS011;45901;47.600;9.890;2024-02-26T14:51:33;1.60;;;0.70;;
60030;SDS011;45901;47.600;9.890;2024-02-26T14:54:01;3.23;;;0.67;;